Погода Оминовона 2 недели

Тверская область, Россия

23 мая-05 июня
  • 23мая
    Сегодня
    +7°
    +21°
    Облачно с прояснениями
    ВремяПогодаТемператураВлажностьДавлениеВетер, м/сВероятность осадков
    00:00Ясно и безоблачно+9°C53 %755 мм2.5 м/с2 %
    03:00Ясно и безоблачно+6°C59 %755 мм2.4 м/с2 %
    06:00Ясно и безоблачно+8°C63 %756 мм2.1 м/с2 %
    09:00Ясно и безоблачно+16°C46 %757 мм1.4 м/с2 %
    12:00Ясно и безоблачно+19°C35 %757 мм1.4 м/с2 %
    15:00Облачно с прояснениями+20°C33 %757 мм0.5 м/с2 %
    18:00Небольшая облачность+21°C33 %756 мм0.3 м/с2 %
    21:00Ясно и безоблачно+16°C58 %756 мм1.7 м/с2 %
  • 24мая
    Пятница
    +8°
    +23°
    Ясно и безоблачно
    ВремяПогодаТемператураВлажностьДавлениеВетер, м/сВероятность осадков
    00:00Ясно и безоблачно+11°C62 %757 мм2.8 м/с2 %
    03:00Ясно и безоблачно+8°C64 %758 мм2.8 м/с2 %
    06:00Ясно и безоблачно+10°C68 %759 мм3.0 м/с2 %
    09:00Ясно и безоблачно+17°C51 %759 мм2.7 м/с2 %
    12:00Ясно и безоблачно+21°C36 %759 мм2.5 м/с2 %
    15:00Ясно и безоблачно+22°C35 %758 мм2.4 м/с2 %
    18:00Ясно и безоблачно+22°C35 %758 мм3.0 м/с2 %
    21:00Ясно и безоблачно+16°C51 %757 мм3.1 м/с2 %
  • 25мая
    Суббота
    +10°
    +24°
    Ясно и безоблачно
    ВремяПогодаТемператураВлажностьДавлениеВетер, м/сВероятность осадков
    00:00Ясно и безоблачно+12°C57 %757 мм3.3 м/с2 %
    03:00Ясно и безоблачно+9°C67 %757 мм3.2 м/с2 %
    06:00Ясно и безоблачно+10°C63 %756 мм3.2 м/с2 %
    09:00Ясно и безоблачно+17°C50 %756 мм3.2 м/с2 %
    12:00Ясно и безоблачно+22°C37 %755 мм3.9 м/с2 %
    15:00Ясно и безоблачно+23°C35 %754 мм4.2 м/с2 %
    18:00Ясно и безоблачно+24°C37 %753 мм4.0 м/с4 %
    21:00Ясно и безоблачно+18°C57 %752 мм2.6 м/с3 %
  • 26мая
    Воскресенье
    +7°
    +21°
    Облачно с прояснениями, ливень
    ВремяПогодаТемператураВлажностьДавлениеВетер, м/сВероятность осадков
    00:00Ясно и безоблачно+13°C63 %752 мм2.9 м/с2 %
    03:00Ясно и безоблачно+11°C75 %752 мм2.3 м/с3 %
    06:00Ясно и безоблачно+12°C75 %752 мм2.4 м/с13 %
    09:00Небольшая облачность+17°C75 %753 мм1.9 м/с39 %
    12:00Облачно с прояснениями, ливень+20°C72 %753 мм2.3 м/с67 %
    15:00Облачно с прояснениями, ливень+18°C74 %753 мм3.8 м/с64 %
    18:00Облачно с прояснениями+21°C60 %753 мм3.0 м/с49 %
    21:00Небольшая облачность+16°C69 %754 мм2.1 м/с14 %
  • 27мая
    Понедельник
    +10°
    +23°
    Ясно и безоблачно
    ВремяПогодаТемператураВлажностьДавлениеВетер, м/сВероятность осадков
    00:00Ясно и безоблачно+11°C65 %755 мм3.8 м/с2 %
    03:00Ясно и безоблачно+9°C71 %756 мм2.9 м/с2 %
    06:00Ясно и безоблачно+10°C73 %757 мм2.6 м/с2 %
    09:00Ясно и безоблачно+16°C57 %757 мм2.6 м/с2 %
    12:00Ясно и безоблачно+20°C43 %757 мм2.2 м/с2 %
    15:00Ясно и безоблачно+22°C40 %756 мм1.4 м/с2 %
    18:00Ясно и безоблачно+22°C42 %755 мм0.9 м/с2 %
    21:00Ясно и безоблачно+18°C61 %755 мм2.0 м/с2 %
Мы используем cookies
Соглашаюсь